createdAt,value
2016-02-22T07:28:56.353Z,25568
2016-02-22T07:29:09.806Z,23424
2016-02-22T07:29:40.793Z,22656
2016-02-22T07:29:55.558Z,19808
2016-02-22T07:30:09.183Z,18912
2016-02-22T07:30:37.156Z,21472
2016-02-22T07:30:53.766Z,22688
2016-02-22T07:31:07.516Z,25536
2016-02-22T07:31:21.299Z,25248
2016-02-22T07:31:34.877Z,25568
2016-02-22T07:31:49.424Z,23872
2016-02-22T07:32:17.301Z,22592
2016-02-22T07:32:45.270Z,22976
2016-02-22T07:32:59.082Z,22112
2016-02-22T07:33:12.492Z,22304
2016-02-22T07:33:30.227Z,24576
2016-02-22T07:33:58.383Z,25568
2016-02-22T07:34:25.869Z,26400
2016-02-22T07:34:42.494Z,24000
2016-02-22T07:34:56.010Z,24608
2016-02-22T07:35:10.135Z,26208
2016-02-22T07:35:23.982Z,25888
2016-02-22T07:35:37.591Z,23648
2016-02-22T07:36:22.452Z,21792
2016-02-22T07:36:39.234Z,21472
2016-02-22T07:36:52.827Z,21664
2016-02-22T07:37:06.687Z,21952
2016-02-22T07:37:34.471Z,24064
2016-02-22T07:37:47.987Z,27136
2016-02-22T07:38:01.768Z,27264
2016-02-22T07:38:15.099Z,26912
2016-02-22T07:38:31.662Z,27552
2016-02-22T07:38:45.318Z,29376
2016-02-22T07:39:05.037Z,29792
2016-02-22T07:39:18.789Z,29376
2016-02-22T07:39:35.414Z,31424
2016-02-22T07:39:48.960Z,31776
2016-02-22T07:40:03.007Z,31424
2016-02-22T07:40:21.401Z,31296
2016-02-22T07:40:52.401Z,29024
2016-02-22T07:41:08.588Z,29568
2016-02-22T07:41:22.420Z,27904
2016-02-22T07:41:51.091Z,30400
2016-02-22T07:42:35.501Z,33504
2016-02-22T07:42:51.876Z,34240
2016-02-22T07:43:05.704Z,34624
2016-02-22T07:43:19.300Z,34880
2016-02-22T07:43:32.675Z,34912
2016-02-22T07:44:13.990Z,33984
2016-02-22T07:44:27.365Z,33536
2016-02-22T07:44:54.865Z,32832
2016-02-22T07:45:08.724Z,32928
2016-02-22T07:45:25.446Z,32992
2016-02-22T07:45:39.040Z,33344
2016-02-22T07:45:52.602Z,33056
2016-02-22T07:46:23.526Z,33472
2016-02-22T07:46:40.276Z,33152
2016-02-22T07:46:53.651Z,31840
2016-02-22T07:47:35.748Z,33920
2016-02-22T07:47:52.373Z,34368
2016-02-22T07:48:09.732Z,33760
2016-02-22T07:48:23.157Z,34016
2016-02-22T07:48:36.751Z,34144
2016-02-22T07:49:32.987Z,33472
2016-02-22T07:50:00.394Z,33184
2016-02-22T07:50:28.178Z,33184
2016-02-22T07:51:09.350Z,35232
2016-02-22T07:51:37.712Z,36224
2016-02-22T07:51:51.181Z,36128
2016-02-22T07:52:07.712Z,37024
2016-02-22T07:52:35.450Z,37504
2016-02-22T07:53:19.873Z,37184
2016-02-22T07:53:34.545Z,36928
2016-02-22T07:53:51.436Z,37056
2016-02-22T07:54:08.217Z,37120
2016-02-22T07:54:35.736Z,37472
2016-02-22T07:55:03.251Z,38144
2016-02-22T07:55:23.083Z,38400
2016-02-22T07:55:36.286Z,38592
2016-02-22T07:55:53.192Z,38912
2016-02-22T07:56:06.583Z,38976
2016-02-22T07:56:20.131Z,39104
2016-02-22T07:56:48.288Z,39392
2016-02-22T07:57:19.056Z,39776
2016-02-22T07:57:32.666Z,39904
2016-02-22T07:58:00.416Z,40256
2016-02-22T07:58:37.137Z,40320
2016-02-22T08:00:00.936Z,41088
2016-02-22T08:00:42.252Z,41888
2016-02-22T08:00:55.830Z,41856
2016-02-22T08:01:26.395Z,41888
2016-02-22T08:01:40.099Z,41824
2016-02-22T08:01:53.192Z,41824
2016-02-22T08:02:06.755Z,41664
2016-02-22T08:02:20.383Z,41600
2016-02-22T08:02:37.086Z,41664
2016-02-22T08:02:50.805Z,41632
2016-02-22T08:03:04.211Z,41728
2016-02-22T08:03:17.682Z,41728
2016-02-22T08:03:31.494Z,41664
2016-02-22T08:03:48.197Z,41792
2016-02-22T08:04:04.775Z,41856
2016-02-22T08:04:18.356Z,42208
2016-02-22T08:04:37.981Z,42592
2016-02-22T08:04:52.543Z,43008
2016-02-22T08:05:20.969Z,43680
2016-02-22T08:05:34.813Z,43648
2016-02-22T08:05:48.610Z,43648
2016-02-22T08:06:02.953Z,43648
2016-02-22T08:06:16.783Z,43264
2016-02-22T08:06:30.768Z,43200
2016-02-22T08:06:58.362Z,42656
2016-02-22T08:07:54.020Z,41728
2016-02-22T08:08:08.004Z,41632
2016-02-22T08:08:30.727Z,41664
2016-02-22T08:08:44.289Z,41856
2016-02-22T08:08:57.946Z,41824
2016-02-22T08:09:14.558Z,42368
2016-02-22T08:09:28.339Z,42432
2016-02-22T08:09:42.089Z,42496
2016-02-22T08:09:55.480Z,42976
2016-02-22T08:10:23.201Z,43200
2016-02-22T08:10:36.763Z,43392
2016-02-22T08:10:53.779Z,43456
2016-02-22T08:11:22.187Z,42880
2016-02-22T08:11:36.078Z,42656
2016-02-22T08:11:49.453Z,42304
2016-02-22T08:12:03.093Z,42048
2016-02-22T08:12:16.535Z,41984
2016-02-22T08:12:30.519Z,41728
2016-02-22T08:13:14.443Z,42144
2016-02-22T08:13:28.349Z,42432
2016-02-22T08:13:42.115Z,42976
2016-02-22T08:13:55.537Z,43328
2016-02-22T08:14:37.945Z,43936
2016-02-22T08:14:52.273Z,44032
2016-02-22T08:15:15.136Z,44096
2016-02-22T08:15:31.761Z,44192
2016-02-22T08:16:28.904Z,46048
2016-02-22T08:16:45.514Z,46688
2016-02-22T08:16:59.389Z,47392
2016-02-22T08:17:13.470Z,47552
2016-02-22T08:17:41.392Z,48160
2016-02-22T08:17:54.954Z,48320
2016-02-22T08:18:08.829Z,48768
2016-02-22T08:18:22.456Z,49056
2016-02-22T08:18:50.378Z,50208
2016-02-22T08:19:03.909Z,50592
2016-02-22T08:19:20.490Z,51136
2016-02-22T08:19:34.147Z,51424
2016-02-22T08:19:47.850Z,51808
2016-02-22T08:20:01.459Z,51872
2016-02-22T08:20:18.025Z,51808
2016-02-22T08:20:45.509Z,51840
2016-02-22T08:21:02.134Z,51552
2016-02-22T08:21:18.715Z,51488
2016-02-22T08:21:32.059Z,51488
2016-02-22T08:22:02.809Z,51392
2016-02-22T08:22:16.655Z,51296
2016-02-22T08:22:44.155Z,51424
2016-02-22T08:22:57.514Z,51520
2016-02-22T08:23:14.517Z,51520
2016-02-22T08:24:09.642Z,52896
2016-02-22T08:24:37.676Z,53152
2016-02-22T08:24:51.223Z,53152
2016-02-22T08:25:04.629Z,53696
2016-02-22T08:25:32.772Z,54240
2016-02-22T08:26:20.134Z,55200
2016-02-22T08:26:33.978Z,55584
2016-02-22T08:26:47.369Z,55744
2016-02-22T08:27:31.527Z,56192
2016-02-22T08:28:02.074Z,56352
2016-02-22T08:28:30.139Z,56448
2016-02-22T08:28:43.514Z,56576
2016-02-22T08:29:02.952Z,56544
2016-02-22T08:29:45.111Z,54848
2016-02-22T08:30:12.848Z,54240
2016-02-22T08:30:26.567Z,53600
2016-02-22T08:30:40.052Z,52576
2016-02-22T08:30:53.645Z,52096
2016-02-22T08:31:07.052Z,51904
2016-02-22T08:31:20.757Z,51424
2016-02-22T08:32:02.788Z,51584
2016-02-22T08:32:19.197Z,52000
2016-02-22T08:32:33.213Z,52320
2016-02-22T08:32:52.853Z,52800
2016-02-22T08:33:06.400Z,52736
2016-02-22T08:33:33.935Z,53888
2016-02-22T08:34:01.450Z,53984
2016-02-22T08:34:29.233Z,53920
2016-02-22T08:34:56.937Z,44096
2016-02-22T08:35:11.171Z,54336
2016-02-22T08:35:41.971Z,53952
2016-02-22T08:35:55.690Z,53632
2016-02-22T08:36:09.986Z,54112
2016-02-22T08:36:23.630Z,54976
2016-02-22T08:36:51.677Z,55200
2016-02-22T08:37:05.052Z,55968
2016-02-22T08:37:21.398Z,56384
2016-02-22T08:37:34.976Z,56384
2016-02-22T08:37:51.632Z,56704
2016-02-22T08:38:05.241Z,57312
2016-02-22T08:38:18.995Z,56800
2016-02-22T08:38:32.558Z,57504
2016-02-22T08:38:49.558Z,57792
2016-02-22T08:39:03.120Z,58080
2016-02-22T08:39:30.654Z,58368
2016-02-22T08:39:58.497Z,58752
2016-02-22T08:40:14.954Z,58688
2016-02-22T08:40:28.454Z,58400
2016-02-22T08:40:43.047Z,58304
2016-02-22T08:41:27.941Z,57920
2016-02-22T08:41:41.707Z,57984
2016-02-22T08:41:58.503Z,58208
2016-02-22T08:42:12.113Z,58400
2016-02-22T08:42:24.818Z,58368
2016-02-22T08:42:41.427Z,58464
2016-02-22T08:43:12.240Z,58496
2016-02-22T08:43:25.618Z,58080
2016-02-22T08:43:39.680Z,57792
2016-02-22T08:43:53.274Z,57888
2016-02-22T08:44:20.793Z,57600
2016-02-22T08:44:34.496Z,58400
2016-02-22T08:44:51.105Z,58176
2016-02-22T08:45:04.558Z,58304
2016-02-22T08:45:20.435Z,59104
2016-02-22T08:46:02.279Z,60608
2016-02-22T08:46:44.001Z,60928
2016-02-22T08:47:00.563Z,60960
2016-02-22T08:47:41.723Z,61184
2016-02-22T08:48:09.254Z,61376
2016-02-22T08:48:22.896Z,61696
2016-02-22T08:48:39.490Z,62272
2016-02-22T08:48:53.100Z,62400
2016-02-22T08:49:07.412Z,62784
2016-02-22T08:49:22.087Z,62784
2016-02-22T08:49:39.399Z,62624
2016-02-22T08:49:53.462Z,62432
2016-02-22T08:50:07.024Z,62336
2016-02-22T08:50:20.683Z,62176
2016-02-22T08:50:34.230Z,61888
2016-02-22T08:51:18.624Z,61888
2016-02-22T08:51:44.280Z,62048
2016-02-22T08:51:57.843Z,62144
2016-02-22T08:52:11.202Z,62176
2016-02-22T08:52:24.798Z,62176
2016-02-22T08:52:52.517Z,62080
2016-02-22T08:53:06.126Z,61792
2016-02-22T08:53:19.534Z,61728
2016-02-22T08:53:47.019Z,60544
2016-02-22T08:54:00.863Z,60192
2016-02-22T08:54:17.694Z,60000
2016-02-22T08:54:31.069Z,59808
2016-02-22T08:54:44.491Z,59840
2016-02-22T08:54:57.850Z,60224
2016-02-22T08:55:11.037Z,60544
2016-02-22T08:55:24.852Z,60224
2016-02-22T08:55:38.664Z,60672
2016-02-22T08:55:52.430Z,61152
2016-02-22T08:56:23.059Z,61376
2016-02-22T08:56:39.637Z,61344
2016-02-22T08:56:53.981Z,61600
2016-02-22T08:57:10.575Z,61088
2016-02-22T08:57:24.342Z,62016
2016-02-22T08:57:37.889Z,61600
2016-02-22T08:58:08.811Z,61376
2016-02-22T08:58:36.330Z,61376
2016-02-22T08:58:50.236Z,61600
2016-02-22T08:59:03.908Z,61216
2016-02-22T08:59:17.566Z,61344
2016-02-22T08:59:59.629Z,60992
2016-02-22T09:00:13.289Z,60896
2016-02-22T09:00:27.336Z,61024
2016-02-22T09:00:40.898Z,60928
2016-02-22T09:00:54.273Z,60768
2016-02-22T09:01:07.633Z,60768
2016-02-22T09:01:35.119Z,61120
2016-02-22T09:01:52.213Z,60640
2016-02-22T09:02:07.119Z,60352
2016-02-22T09:02:20.746Z,59584
2016-02-22T09:02:34.355Z,60160
2016-02-22T09:02:51.012Z,60064
2016-02-22T09:03:04.637Z,59328
2016-02-22T09:03:18.202Z,59104
2016-02-22T09:03:45.952Z,59168
2016-02-22T09:04:13.643Z,59360
2016-02-22T09:04:27.049Z,60288
2016-02-22T09:04:40.643Z,61664
2016-02-22T09:04:54.252Z,64032
2016-02-22T09:05:11.018Z,62496
2016-02-22T09:05:27.583Z,63840
2016-02-22T09:05:55.521Z,63488
2016-02-22T09:06:23.023Z,66336
2016-02-22T09:06:36.694Z,66688
2016-02-22T09:07:04.304Z,66496
2016-02-22T09:07:20.682Z,65984
2016-02-22T09:07:34.104Z,65056
2016-02-22T09:07:47.791Z,64224
2016-02-22T09:08:01.197Z,63744
2016-02-22T09:08:14.622Z,63200
2016-02-22T09:08:28.060Z,62816
2016-02-22T09:08:41.497Z,62528
2016-02-22T09:08:54.857Z,61056
2016-02-22T09:09:08.622Z,62848
2016-02-22T09:09:36.125Z,63136
2016-02-22T09:09:49.797Z,63424
2016-02-22T09:10:06.719Z,63744
2016-02-22T09:10:23.440Z,63456
2016-02-22T09:10:36.846Z,63200
2016-02-22T09:10:54.440Z,62560
2016-02-22T09:11:07.830Z,63200
2016-02-22T09:11:35.615Z,61184
2016-02-22T09:12:03.537Z,64928
2016-02-22T09:12:17.180Z,64448
2016-02-22T09:12:37.086Z,63616
2016-02-22T09:12:50.915Z,62208
2016-02-22T09:13:04.711Z,62304
2016-02-22T09:13:21.667Z,61184
2016-02-22T09:13:35.057Z,60768
2016-02-22T09:13:48.667Z,62784
2016-02-22T09:14:05.995Z,61792
2016-02-22T09:14:19.388Z,64544
2016-02-22T09:14:32.779Z,66240
2016-02-22T09:14:47.451Z,66336
2016-02-22T09:15:00.841Z,66240
2016-02-22T09:15:15.234Z,66656
2016-02-22T09:15:43.062Z,67232
2016-02-22T09:15:57.109Z,67296
2016-02-22T09:16:10.672Z,67936
2016-02-22T09:16:44.409Z,66976
2016-02-22T09:17:12.128Z,66720
2016-02-22T09:18:13.634Z,66240
2016-02-22T09:18:27.212Z,66144
2016-02-22T09:18:41.118Z,67072
2016-02-22T09:18:54.493Z,67936
2016-02-22T09:19:08.087Z,68288
2016-02-22T09:19:35.605Z,68640
2016-02-22T09:19:52.934Z,68416
2016-02-22T09:20:20.514Z,69152
2016-02-22T09:20:34.154Z,68576
2016-02-22T09:20:47.576Z,67808
2016-02-22T09:21:01.154Z,67360
2016-02-22T09:21:15.001Z,66752
2016-02-22T09:21:28.782Z,65760
2016-02-22T09:21:56.814Z,64640
2016-02-22T09:22:27.566Z,64544
2016-02-22T09:22:40.987Z,64864
2016-02-22T09:22:54.956Z,64928
2016-02-22T09:23:11.737Z,53120
2016-02-22T09:23:25.319Z,38112
2016-02-22T09:23:52.772Z,58848
2016-02-22T09:24:06.709Z,63840
2016-02-22T09:24:20.212Z,66592
2016-02-22T09:25:15.683Z,66304
2016-02-22T09:25:46.230Z,67104
2016-02-22T09:26:00.027Z,66816
2016-02-22T09:26:13.386Z,66688
2016-02-22T09:27:53.486Z,63008
2016-02-22T09:28:21.192Z,63200
2016-02-22T09:28:34.942Z,63040
2016-02-22T09:28:48.536Z,64000
2016-02-22T09:29:05.614Z,64448
2016-02-22T09:29:19.241Z,65120
2016-02-22T09:29:33.475Z,65248
2016-02-22T09:29:46.819Z,65504
2016-02-22T09:30:17.463Z,65792
2016-02-22T09:30:31.088Z,66272
2016-02-22T09:30:44.994Z,66656
2016-02-22T09:30:58.791Z,66944
2016-02-22T09:31:53.856Z,68000
2016-02-22T09:32:24.811Z,67488
2016-02-22T09:32:52.968Z,68032
2016-02-22T09:33:06.593Z,67936
2016-02-22T09:33:23.189Z,68256
2016-02-22T09:33:36.736Z,68096
2016-02-22T09:33:50.330Z,68320
2016-02-22T09:34:04.611Z,68128
2016-02-22T09:34:18.224Z,68256
2016-02-22T09:34:31.770Z,67904
2016-02-22T09:34:45.349Z,67616
2016-02-22T09:34:58.770Z,67872
2016-02-22T09:35:26.304Z,67040
2016-02-22T09:35:39.866Z,67488
2016-02-22T09:36:02.757Z,67360
2016-02-22T09:36:30.291Z,66944
2016-02-22T09:36:43.635Z,67040
2016-02-22T09:37:31.716Z,67296
2016-02-22T09:37:45.341Z,67328
2016-02-22T09:37:58.653Z,66976
2016-02-22T09:38:12.435Z,66880
2016-02-22T09:38:26.031Z,66752
2016-02-22T09:39:10.141Z,65888
2016-02-22T09:39:26.768Z,65664
2016-02-22T09:39:43.455Z,65344
2016-02-22T09:39:57.283Z,64992
2016-02-22T09:40:25.490Z,65696
2016-02-22T09:40:39.943Z,66016
2016-02-22T09:40:53.755Z,66368
2016-02-22T09:41:07.177Z,66080
2016-02-22T09:41:23.899Z,66240
2016-02-22T09:41:37.571Z,66176
2016-02-22T09:42:05.524Z,65888
2016-02-22T09:42:18.901Z,66560
2016-02-22T09:42:47.135Z,67584
2016-02-22T09:43:00.729Z,67872
2016-02-22T09:43:14.591Z,67520
2016-02-22T09:43:28.279Z,67040
2016-02-22T09:43:42.248Z,67872
2016-02-22T09:43:56.060Z,68640
2016-02-22T09:44:26.968Z,68704
2016-02-22T09:44:40.250Z,68544
2016-02-22T09:44:56.562Z,69280
2016-02-22T09:45:12.828Z,69408
2016-02-22T09:45:43.347Z,69600
2016-02-22T09:46:00.347Z,70432
2016-02-22T09:46:17.927Z,71648
2016-02-22T09:46:31.365Z,71648
2016-02-22T09:46:47.802Z,72032
2016-02-22T09:47:01.224Z,72256
2016-02-22T09:47:14.633Z,71872
2016-02-22T09:47:56.523Z,54144
2016-02-22T09:48:10.086Z,57056
2016-02-22T09:48:32.464Z,61120
2016-02-22T09:48:46.214Z,45152
2016-02-22T09:48:59.854Z,35200
2016-02-22T09:49:13.651Z,29632
2016-02-22T09:49:27.357Z,26848
2016-02-22T09:49:46.717Z,39808
2016-02-22T09:50:00.092Z,51072
2016-02-22T09:50:27.610Z,54016
2016-02-22T09:50:55.173Z,65408
2016-02-22T09:51:22.847Z,76736
2016-02-22T09:51:43.206Z,78784
2016-02-22T09:52:27.038Z,79744
2016-02-22T09:52:43.585Z,75456
2016-02-22T09:52:57.241Z,77184
2016-02-22T09:53:10.648Z,75520
2016-02-22T09:53:41.336Z,38912
2016-02-22T09:53:54.508Z,36256
2016-02-22T09:54:08.055Z,62624
2016-02-22T09:54:24.653Z,72864
2016-02-22T09:54:38.199Z,79648
2016-02-22T09:55:20.076Z,82944
2016-02-22T09:55:33.467Z,83328
2016-02-22T09:55:47.123Z,83488
2016-02-22T09:56:01.155Z,79936
2016-02-22T09:56:17.047Z,69280
2016-02-22T09:56:30.641Z,66752
2016-02-22T09:56:44.453Z,74464
2016-02-22T09:57:01.016Z,80352
2016-02-22T09:57:15.067Z,84256
2016-02-22T09:57:42.848Z,84832
2016-02-22T09:57:56.692Z,82880
2016-02-22T09:58:22.460Z,76224
2016-02-22T09:58:36.226Z,72256
2016-02-22T09:58:49.648Z,76032
2016-02-22T09:59:06.023Z,78720
2016-02-22T09:59:33.556Z,81728
2016-02-22T09:59:49.947Z,81792
2016-02-22T10:00:03.587Z,73664
2016-02-22T10:00:17.372Z,80896
2016-02-22T10:00:38.419Z,79712
2016-02-22T10:00:55.622Z,82112
2016-02-22T10:01:23.139Z,75488
2016-02-22T10:01:36.561Z,78912
2016-02-22T10:01:49.999Z,82240
2016-02-22T10:02:03.077Z,80928
2016-02-22T10:02:16.861Z,72416
2016-02-22T10:02:33.767Z,73088
2016-02-22T10:02:47.330Z,73216
2016-02-22T10:03:04.095Z,72832
2016-02-22T10:03:17.677Z,73856
2016-02-22T10:03:45.583Z,70784
2016-02-22T10:03:58.973Z,67200
2016-02-22T10:04:12.598Z,67680
2016-02-22T10:04:26.007Z,65728
2016-02-22T10:05:11.147Z,68192
2016-02-22T10:05:24.588Z,68192
2016-02-22T10:05:37.963Z,67008
2016-02-22T10:05:51.307Z,70080
2016-02-22T10:06:04.713Z,72736
2016-02-22T10:06:18.497Z,73280
2016-02-22T10:06:31.716Z,73920
2016-02-22T10:06:45.122Z,76928
2016-02-22T10:06:59.122Z,82880
2016-02-22T10:07:26.812Z,85408
2016-02-22T10:07:40.202Z,87392
2016-02-22T10:07:54.015Z,87584
2016-02-22T10:08:07.374Z,88384
2016-02-22T10:08:21.221Z,89056
2016-02-22T10:08:48.721Z,85792
2016-02-22T10:09:19.363Z,82848
2016-02-22T10:10:14.882Z,88064
2016-02-22T10:10:42.523Z,86848
2016-02-22T10:10:56.038Z,88832
2016-02-22T10:11:26.760Z,92320
2016-02-22T10:11:40.166Z,91616
2016-02-22T10:11:56.807Z,90656
2016-02-22T10:12:13.229Z,93920
2016-02-22T10:12:41.591Z,84896
2016-02-22T10:12:55.013Z,63840
2016-02-22T10:13:11.685Z,91648
2016-02-22T10:13:25.218Z,93344
2016-02-22T10:13:52.718Z,97920
2016-02-22T10:14:06.062Z,95424
2016-02-22T10:14:20.363Z,93344
2016-02-22T10:14:34.019Z,92064
2016-02-22T10:14:50.707Z,95072
2016-02-22T10:15:04.097Z,94016
2016-02-22T10:15:32.021Z,94944
2016-02-22T10:15:45.380Z,93568
2016-02-22T10:15:58.709Z,90336
2016-02-22T10:16:12.552Z,89216
2016-02-22T10:16:26.336Z,70688
2016-02-22T10:16:39.726Z,52576
2016-02-22T10:16:53.367Z,61248
2016-02-22T10:17:21.152Z,91552
2016-02-22T10:17:38.761Z,100032
2016-02-22T10:17:58.465Z,103040
2016-02-22T10:18:12.027Z,102688
2016-02-22T10:18:25.888Z,101728
2016-02-22T10:18:39.435Z,102208
2016-02-22T10:19:07.404Z,99712
2016-02-22T10:19:38.063Z,91904
2016-02-22T10:20:05.751Z,81824
2016-02-22T10:20:19.347Z,76320
2016-02-22T10:21:00.831Z,81408
2016-02-22T10:21:28.568Z,85664
2016-02-22T10:22:23.665Z,98176
2016-02-22T10:22:37.024Z,98304
2016-02-22T10:22:50.415Z,97984
2016-02-22T10:23:04.462Z,93440
2016-02-22T10:23:18.434Z,94176
2016-02-22T10:23:35.246Z,93952
2016-02-22T10:24:02.934Z,92096
2016-02-22T10:24:16.358Z,90016
2016-02-22T10:24:32.826Z,89920
2016-02-22T10:24:55.404Z,87264
2016-02-22T10:25:14.811Z,87616
2016-02-22T10:25:58.689Z,98880
2016-02-22T10:26:12.407Z,96096
2016-02-22T10:26:25.973Z,90144
2016-02-22T10:26:54.160Z,85664
2016-02-22T10:27:36.225Z,79008
2016-02-22T10:27:49.850Z,75328
2016-02-22T10:28:03.944Z,78400
2016-02-22T10:28:31.540Z,82208
2016-02-22T10:28:48.431Z,84224
2016-02-22T10:29:16.386Z,85760
2016-02-22T10:29:35.933Z,91200
2016-02-22T10:29:49.714Z,92640
2016-02-22T10:30:06.589Z,96704
2016-02-22T10:30:26.217Z,98528
2016-02-22T10:30:39.733Z,97760
2016-02-22T10:30:53.514Z,98720
2016-02-22T10:31:21.580Z,102592
2016-02-22T10:31:35.173Z,105216
2016-02-22T10:31:48.752Z,103232
2016-02-22T10:32:19.317Z,105120
2016-02-22T10:32:33.083Z,102368
2016-02-22T10:32:46.520Z,104128
2016-02-22T10:33:02.880Z,108032
2016-02-22T10:33:16.241Z,107232
2016-02-22T10:33:29.632Z,105024
2016-02-22T10:33:43.085Z,104352
2016-02-22T10:34:10.803Z,103712
2016-02-22T10:34:24.213Z,103648
2016-02-22T10:34:37.806Z,104000
2016-02-22T10:34:51.385Z,102432
2016-02-22T10:35:19.122Z,100640
2016-02-22T10:35:33.184Z,101600
2016-02-22T10:35:47.106Z,102560
2016-02-22T10:36:31.499Z,102592
2016-02-22T10:36:44.905Z,102080
2016-02-22T10:36:58.358Z,101472
2016-02-22T10:37:18.002Z,100768
2016-02-22T10:37:31.814Z,100288
2016-02-22T10:37:45.361Z,99616
2016-02-22T10:38:02.439Z,99328
2016-02-22T10:38:16.536Z,99136
2016-02-22T10:38:30.161Z,99136
2016-02-22T10:38:57.927Z,99968
2016-02-22T10:39:25.820Z,100960
2016-02-22T10:39:39.352Z,101504
2016-02-22T10:40:06.867Z,101696
2016-02-22T10:40:37.901Z,101216
2016-02-22T10:40:51.541Z,100448
2016-02-22T10:41:05.682Z,99488
2016-02-22T10:41:33.482Z,97824
2016-02-22T10:42:15.562Z,96832
2016-02-22T10:42:32.281Z,97184
2016-02-22T10:42:47.234Z,97440
2016-02-22T10:43:01.015Z,98784
2016-02-22T10:43:41.955Z,101504
2016-02-22T10:43:55.580Z,102368
2016-02-22T10:44:09.737Z,103232
2016-02-22T10:44:37.302Z,103808
2016-02-22T10:44:51.583Z,103904
2016-02-22T10:45:08.162Z,103904
2016-02-22T10:45:36.055Z,104000
2016-02-22T10:45:49.446Z,103744
2016-02-22T10:46:02.821Z,103776
2016-02-22T10:46:16.432Z,103264
2016-02-22T10:46:44.417Z,101408
2016-02-22T10:47:11.932Z,99360
2016-02-22T10:47:31.623Z,98784
2016-02-22T10:47:59.357Z,98144
2016-02-22T10:48:13.170Z,98208
2016-02-22T10:48:54.844Z,99680
2016-02-22T10:49:12.391Z,100960
2016-02-22T10:49:43.550Z,101472
2016-02-22T10:49:57.128Z,101056
2016-02-22T10:50:24.834Z,100544
2016-02-22T10:50:41.209Z,100032
2016-02-22T10:51:09.131Z,98016
2016-02-22T10:51:36.681Z,98144
2016-02-22T10:51:53.337Z,99840
2016-02-22T10:52:06.727Z,101248
2016-02-22T10:52:20.105Z,103680
2016-02-22T10:52:33.621Z,105344
2016-02-22T10:52:47.355Z,108704
2016-02-22T10:53:15.402Z,109824
2016-02-22T10:53:32.311Z,110880
2016-02-22T10:53:59.842Z,110592
2016-02-22T10:54:16.392Z,110432
2016-02-22T10:54:44.235Z,109440
2016-02-22T10:55:12.314Z,108800
2016-02-22T10:55:25.801Z,107872
2016-02-22T10:55:39.332Z,106880
2016-02-22T10:56:07.051Z,105600
2016-02-22T10:56:23.772Z,104768
2016-02-22T10:57:05.725Z,104032
2016-02-22T10:57:33.493Z,103776
2016-02-22T10:57:47.337Z,104256
2016-02-22T10:58:00.243Z,104416
2016-02-22T10:58:13.665Z,104960
2016-02-22T10:58:27.434Z,106144
2016-02-22T10:58:40.856Z,105696
2016-02-22T10:59:08.575Z,106944
2016-02-22T10:59:22.203Z,107808
2016-02-22T10:59:35.890Z,108480
2016-02-22T10:59:50.078Z,107840
2016-02-22T11:00:04.171Z,108416
2016-02-22T11:00:17.767Z,108960
2016-02-22T11:00:31.345Z,108640
2016-02-22T11:00:45.095Z,108800
2016-02-22T11:00:58.517Z,108896
2016-02-22T11:01:12.173Z,108800
2016-02-22T11:01:25.723Z,108192
2016-02-22T11:01:53.317Z,107488
2016-02-22T11:02:06.879Z,106720
2016-02-22T11:02:20.303Z,106400
2016-02-22T11:02:33.663Z,106560
2016-02-22T11:02:50.241Z,106944
2016-02-22T11:03:03.428Z,107168
2016-02-22T11:03:17.056Z,107520
2016-02-22T11:03:31.072Z,108512
2016-02-22T11:03:44.728Z,108704
2016-02-22T11:04:01.525Z,108928
2016-02-22T11:04:15.150Z,110496
2016-02-22T11:04:31.606Z,110336
2016-02-22T11:05:12.934Z,111648
2016-02-22T11:05:26.281Z,113792
2016-02-22T11:05:42.797Z,114912
2016-02-22T11:05:59.406Z,116736
2016-02-22T11:06:12.859Z,118336
2016-02-22T11:06:26.439Z,119264
2016-02-22T11:06:39.846Z,121472
2016-02-22T11:06:59.486Z,122944
2016-02-22T11:07:16.099Z,125760
2016-02-22T11:07:57.989Z,127008
2016-02-22T11:08:14.520Z,125856
2016-02-22T11:08:45.101Z,121760
2016-02-22T11:09:01.569Z,117408
2016-02-22T11:09:15.179Z,114080
2016-02-22T11:09:32.150Z,110944
2016-02-22T11:09:45.713Z,108704
2016-02-22T11:10:02.088Z,105824
2016-02-22T11:10:18.982Z,104544
2016-02-22T11:10:32.325Z,103872
2016-02-22T11:10:48.716Z,103744
2016-02-22T11:11:02.341Z,104480
2016-02-22T11:11:15.982Z,105504
2016-02-22T11:11:33.046Z,106080
2016-02-22T11:12:00.765Z,113248
2016-02-22T11:12:14.109Z,118624
2016-02-22T11:12:27.893Z,124448
2016-02-22T11:12:41.487Z,131552
2016-02-22T11:13:09.205Z,146016
2016-02-22T11:13:37.349Z,153824
2016-02-22T11:13:50.786Z,151904
2016-02-22T11:14:04.568Z,143520
2016-02-22T11:14:18.196Z,126944
2016-02-22T11:14:46.571Z,88352
2016-02-22T11:14:59.758Z,78336
2016-02-22T11:15:27.338Z,64160
2016-02-22T11:15:41.432Z,51744
2016-02-22T11:15:54.870Z,48384
2016-02-22T11:16:07.698Z,43904
2016-02-22T11:16:21.013Z,41280
2016-02-22T11:16:37.638Z,37600
2016-02-22T11:16:54.341Z,34688
2016-02-22T11:17:07.716Z,37376
2016-02-22T11:17:21.453Z,38944
2016-02-22T11:17:34.812Z,39936
2016-02-22T11:17:48.187Z,38848
2016-02-22T11:18:29.425Z,35872
2016-02-22T11:18:43.269Z,36512
2016-02-22T11:19:27.599Z,37504
2016-02-22T11:19:41.443Z,37600
2016-02-22T11:19:54.677Z,37728
2016-02-22T11:20:08.537Z,37920
2016-02-22T11:20:22.149Z,37888
2016-02-22T11:20:49.727Z,38144
2016-02-22T11:21:03.696Z,38016
2016-02-22T11:21:17.136Z,38272
2016-02-22T11:21:47.729Z,38336
2016-02-22T11:22:01.667Z,38944
2016-02-22T11:23:27.923Z,46048
2016-02-22T11:23:55.610Z,47968
2016-02-22T11:24:37.441Z,49504
2016-02-22T11:24:51.066Z,49600
2016-02-22T11:25:05.066Z,50208
2016-02-22T11:25:36.178Z,51136
2016-02-22T11:25:49.584Z,51936
2016-02-22T11:26:06.678Z,52704
2016-02-22T11:26:23.353Z,53568
2016-02-22T11:26:37.134Z,54304
2016-02-22T11:27:19.403Z,55488
2016-02-22T11:27:46.903Z,55776
2016-02-22T11:28:14.387Z,56736
2016-02-22T11:28:30.764Z,58144
2016-02-22T11:28:50.389Z,60096
2016-02-22T11:29:03.795Z,61632
2016-02-22T11:29:31.517Z,64864
2016-02-22T11:29:45.579Z,66400
2016-02-22T11:30:13.095Z,68576
2016-02-22T11:30:29.910Z,69472
2016-02-22T11:31:06.519Z,71712
2016-02-22T11:31:34.054Z,73504
2016-02-22T11:31:47.804Z,74208
2016-02-22T11:32:01.289Z,74976
2016-02-22T11:32:15.132Z,76288
2016-02-22T11:32:43.056Z,76736
2016-02-22T11:32:59.728Z,77376
2016-02-22T11:33:27.262Z,78624
2016-02-22T11:33:55.169Z,79872
2016-02-22T11:34:08.575Z,80096
2016-02-22T11:34:25.217Z,80256
2016-02-22T11:34:39.233Z,80832
2016-02-22T11:34:53.874Z,81344
2016-02-22T11:35:07.499Z,81984
2016-02-22T11:35:21.345Z,82336
2016-02-22T11:35:34.689Z,83424
2016-02-22T11:35:48.533Z,83296
2016-02-22T11:36:30.536Z,82752
2016-02-22T11:36:43.895Z,80736
2016-02-22T11:36:57.239Z,80160
2016-02-22T11:37:10.598Z,79264
2016-02-22T11:37:44.429Z,78176
2016-02-22T11:37:57.819Z,78240
2016-02-22T11:38:11.460Z,79680
2016-02-22T11:38:25.135Z,79808
2016-02-22T11:38:52.728Z,82848
2016-02-22T11:39:39.825Z,82144
2016-02-22T11:39:53.153Z,79520
2016-02-22T11:40:06.544Z,75488
2016-02-22T11:40:22.969Z,70336
2016-02-22T11:40:37.188Z,64928